createdAt,value
2019-05-22T00:02:00.950Z,100667.25
2019-05-22T00:07:08.205Z,100668.05
2019-05-22T00:12:17.436Z,100664.99
2019-05-22T00:17:30.011Z,100669.93
2019-05-22T00:22:35.280Z,100668.81
2019-05-22T00:27:39.528Z,100669.48
2019-05-22T00:32:43.220Z,100667.48
2019-05-22T00:37:47.198Z,100666.78
2019-05-22T00:43:03.483Z,100672.81
2019-05-22T00:47:57.897Z,100682.11
2019-05-22T00:53:02.700Z,100689.47
2019-05-22T00:58:18.559Z,100689.67
2019-05-22T01:03:24.337Z,100689.44
2019-05-22T01:08:28.523Z,100695.34
2019-05-22T01:13:32.771Z,100695.89
2019-05-22T01:18:38.460Z,100691.34
2019-05-22T01:23:42.740Z,100692.83
2019-05-22T01:28:48.910Z,100699.31
2019-05-22T01:34:01.546Z,100699.05
2019-05-22T01:39:31.130Z,100703.54
2019-05-22T01:44:35.486Z,100696.05
2019-05-22T01:49:44.003Z,100706.25
2019-05-22T01:54:47.900Z,100707.84
2019-05-22T01:59:52.230Z,100709.06
2019-05-22T02:04:58.044Z,100711.86
2019-05-22T02:10:03.400Z,100718.37
2019-05-22T02:15:09.415Z,100720.12
2019-05-22T02:20:13.602Z,100726.50
2019-05-22T02:25:17.887Z,100726.29
2019-05-22T02:30:24.536Z,100729.61
2019-05-22T02:35:28.804Z,100743.05
2019-05-22T02:40:36.788Z,100741.08
2019-05-22T02:45:39.897Z,100740.66
2019-05-22T02:50:43.257Z,100745.11
2019-05-22T02:55:47.097Z,100749.83
2019-05-22T03:00:57.834Z,100745.67
2019-05-22T03:06:05.065Z,100748.47
2019-05-22T03:11:08.599Z,100750.93
2019-05-22T03:16:11.694Z,100748.40
2019-05-22T03:21:15.213Z,100756.66
2019-05-22T03:26:21.784Z,100765.16
2019-05-22T03:31:24.929Z,100766.66
2019-05-22T03:36:28.740Z,100774.45
2019-05-22T03:41:32.799Z,100779.07
2019-05-22T03:46:44.200Z,100782.34
2019-05-22T03:51:50.292Z,100789.30
2019-05-22T03:56:55.679Z,100800.55
2019-05-22T04:01:58.869Z,100793.42
2019-05-22T04:07:03.195Z,100804.68
2019-05-22T04:12:07.338Z,100815.34
2019-05-22T04:17:12.990Z,100825.91
2019-05-22T04:22:17.253Z,100825.95
2019-05-22T04:27:21.236Z,100826.52
2019-05-22T04:32:30.072Z,100840.70
2019-05-22T04:37:33.999Z,100835.81
2019-05-22T04:42:38.034Z,100841.03
2019-05-22T04:47:54.752Z,100852.42
2019-05-22T04:52:59.637Z,100854.08
2019-05-22T04:58:04.125Z,100853.05
2019-05-22T05:03:08.201Z,100874.41
2019-05-22T05:08:18.048Z,100861.16
2019-05-22T05:13:21.408Z,100868.75
2019-05-22T05:18:25.014Z,100875.52
2019-05-22T05:23:29.087Z,100881.09
2019-05-22T05:28:33.983Z,100892.30
2019-05-22T05:34:03.555Z,100899.92
2019-05-22T05:39:12.376Z,100906.24
2019-05-22T05:44:14.973Z,100906.20
2019-05-22T05:49:18.876Z,100911.91
2019-05-22T05:54:23.206Z,100922.28
2019-05-22T05:59:28.036Z,100925.95
2019-05-22T06:04:35.764Z,100924.81
2019-05-22T06:09:39.840Z,100943.59
2019-05-22T06:14:43.750Z,100942.86
2019-05-22T06:19:50.261Z,100953.84
2019-05-22T06:25:05.962Z,100943.91
2019-05-22T06:30:13.644Z,100951.73
2019-05-22T06:35:17.481Z,100959.45
2019-05-22T06:40:22.248Z,100959.23
2019-05-22T06:45:26.236Z,100968.87
2019-05-22T06:50:29.627Z,100975.77
2019-05-22T06:55:33.227Z,100979.81
2019-05-22T07:00:36.860Z,100988.48
2019-05-22T07:05:40.592Z,100988.55
2019-05-22T07:10:44.434Z,100989.52
2019-05-22T07:15:54.000Z,100986.77
2019-05-22T07:20:57.337Z,100989.94
2019-05-22T07:26:01.946Z,100998.15
2019-05-22T07:31:07.676Z,100998.30
2019-05-22T07:36:16.500Z,101004.42
2019-05-22T07:41:16.976Z,101022.80
2019-05-22T07:46:20.434Z,101013.89
2019-05-22T07:51:25.339Z,101017.87
2019-05-22T07:56:29.410Z,101026.52
2019-05-22T08:01:33.336Z,101025.97
2019-05-22T08:06:37.145Z,101032.86
2019-05-22T08:11:41.242Z,101040.09
2019-05-22T08:16:45.374Z,101040.02
2019-05-22T08:21:48.372Z,101038.03
2019-05-22T08:26:54.851Z,101050.63
2019-05-22T08:31:59.142Z,101046.31
2019-05-22T08:37:05.430Z,101055.39
2019-05-22T08:42:10.834Z,101059.00
2019-05-22T08:47:14.464Z,101068.16
2019-05-22T08:52:23.576Z,101069.55
2019-05-22T08:57:25.724Z,101080.24
2019-05-22T09:02:31.745Z,101091.31
2019-05-22T09:07:35.850Z,101096.33
2019-05-22T09:12:39.063Z,101099.20
2019-05-22T09:17:42.064Z,101103.88
2019-05-22T09:22:47.060Z,101114.79
2019-05-22T09:27:50.743Z,101119.00
2019-05-22T09:32:55.477Z,101130.42
2019-05-22T09:37:59.003Z,101134.18
2019-05-22T09:43:02.757Z,101145.94
2019-05-22T09:48:07.599Z,101145.22
2019-05-22T09:53:11.024Z,101156.92
2019-05-22T09:58:14.656Z,101160.88
2019-05-22T10:03:18.066Z,101178.68
2019-05-22T10:08:21.930Z,101164.70
2019-05-22T10:13:28.996Z,101164.99
2019-05-22T10:18:30.794Z,101182.05
2019-05-22T10:23:35.055Z,101184.38
2019-05-22T10:28:38.489Z,101179.75
2019-05-22T10:33:42.142Z,101182.64
2019-05-22T10:38:45.449Z,101196.57
2019-05-22T10:43:49.728Z,101192.36
2019-05-22T10:48:52.957Z,101198.00
2019-05-22T10:53:56.235Z,101206.19
2019-05-22T10:59:01.665Z,101216.06
2019-05-22T11:04:06.121Z,101219.44
2019-05-22T11:09:11.829Z,101203.39
2019-05-22T11:14:15.143Z,101211.56
2019-05-22T11:19:20.553Z,101220.52
2019-05-22T11:24:24.022Z,101222.44
2019-05-22T11:29:28.249Z,101228.00
2019-05-22T11:34:31.959Z,101219.91
2019-05-22T11:39:39.784Z,101227.50
2019-05-22T11:44:42.568Z,101232.31
2019-05-22T11:49:45.802Z,101223.19
2019-05-22T11:54:49.609Z,101229.44
2019-05-22T11:59:53.141Z,101245.16
2019-05-22T12:04:57.644Z,101251.08
2019-05-22T12:10:00.597Z,101259.44
2019-05-22T12:15:06.182Z,101256.22
2019-05-22T12:20:10.844Z,101266.12
2019-05-22T12:25:14.731Z,101269.16
2019-05-22T12:30:19.832Z,101277.52
2019-05-22T12:35:25.098Z,101273.05
2019-05-22T12:40:33.643Z,101281.20
2019-05-22T12:45:39.134Z,101276.92
2019-05-22T12:50:42.556Z,101278.48
2019-05-22T12:55:46.052Z,101276.72
2019-05-22T13:00:49.224Z,101289.39
2019-05-22T13:05:52.581Z,101279.09
2019-05-22T13:10:56.920Z,101282.17
2019-05-22T13:16:02.299Z,101280.11
2019-05-22T13:21:11.109Z,101273.25
2019-05-22T13:26:16.634Z,101274.50
2019-05-22T13:31:21.043Z,101271.42
2019-05-22T13:36:24.817Z,101287.03
2019-05-22T13:41:28.829Z,101290.66
2019-05-22T13:46:31.691Z,101284.75
2019-05-22T13:51:35.578Z,101299.27
2019-05-22T13:56:40.054Z,101293.80
2019-05-22T14:01:43.569Z,101303.03
2019-05-22T14:06:47.246Z,101307.20
2019-05-22T14:11:51.388Z,101314.73
2019-05-22T14:16:54.628Z,101311.28
2019-05-22T14:21:57.877Z,101320.00
2019-05-22T14:27:01.271Z,101313.78
2019-05-22T14:32:06.762Z,101310.17
2019-05-22T14:37:10.663Z,101306.95
2019-05-22T14:42:15.084Z,101314.83
2019-05-22T14:47:19.098Z,101305.00
2019-05-22T14:52:23.750Z,101308.44
2019-05-22T14:57:27.682Z,101315.87
2019-05-22T15:02:31.513Z,101312.16
2019-05-22T15:07:34.497Z,101307.14
2019-05-22T15:12:37.032Z,101293.47
2019-05-22T15:17:40.686Z,101300.59
2019-05-22T15:22:44.542Z,101299.88
2019-05-22T15:27:48.225Z,101302.30
2019-05-22T15:32:51.739Z,101311.18
2019-05-22T15:37:55.505Z,101313.05
2019-05-22T15:42:59.270Z,101315.56
2019-05-22T15:48:07.487Z,101317.42
2019-05-22T15:53:14.991Z,101319.16
2019-05-22T15:58:18.555Z,101315.03
2019-05-22T16:03:26.408Z,101318.05
2019-05-22T16:08:31.282Z,101322.89
2019-05-22T16:13:36.374Z,101316.16
2019-05-22T16:18:43.801Z,101321.41
2019-05-22T16:23:47.734Z,101325.09
2019-05-22T16:28:51.377Z,101331.02
2019-05-22T16:33:54.675Z,101330.34
2019-05-22T16:38:57.579Z,101334.91
2019-05-22T16:44:01.400Z,101338.98
2019-05-22T16:49:05.433Z,101343.34
2019-05-22T16:54:10.182Z,101347.05
2019-05-22T16:59:14.282Z,101345.56
2019-05-22T17:04:18.164Z,101359.05
2019-05-22T17:09:21.234Z,101359.23
2019-05-22T17:14:25.655Z,101363.53
2019-05-22T17:19:29.688Z,101365.61
2019-05-22T17:24:34.454Z,101360.95
2019-05-22T17:29:38.143Z,101361.16
2019-05-22T17:34:41.104Z,101371.92
2019-05-22T17:39:48.012Z,101369.45
2019-05-22T17:44:53.632Z,101367.83
2019-05-22T17:49:58.694Z,101381.29
2019-05-22T17:55:04.423Z,101385.94
2019-05-22T18:00:12.495Z,101385.94
2019-05-22T18:05:16.280Z,101388.69
2019-05-22T18:10:20.567Z,101388.91
2019-05-22T18:15:24.142Z,101388.23
2019-05-22T18:20:41.723Z,101400.63
2019-05-22T18:25:32.307Z,101397.77
2019-05-22T18:30:37.751Z,101397.81
2019-05-22T18:35:41.226Z,101407.82
2019-05-22T18:40:44.876Z,101408.81
2019-05-22T18:45:48.934Z,101416.88
2019-05-22T18:50:53.310Z,101417.49
2019-05-22T18:55:57.146Z,101426.73
2019-05-22T19:01:00.750Z,101428.67
2019-05-22T19:06:04.938Z,101434.85
2019-05-22T19:11:09.723Z,101446.34
2019-05-22T19:16:13.994Z,101446.63
2019-05-22T19:21:18.342Z,101446.80
2019-05-22T19:26:22.208Z,101450.12
2019-05-22T19:31:25.979Z,101455.19
2019-05-22T19:36:29.862Z,101453.53
2019-05-22T19:41:34.110Z,101461.22
2019-05-22T19:46:39.110Z,101460.23
2019-05-22T19:51:42.618Z,101461.35
2019-05-22T19:56:45.662Z,101464.92
2019-05-22T20:01:51.935Z,101469.42
2019-05-22T20:06:56.192Z,101474.95
2019-05-22T20:12:01.254Z,101477.44
2019-05-22T20:17:05.401Z,101469.16
2019-05-22T20:22:07.824Z,101474.68
2019-05-22T20:27:12.014Z,101472.48
2019-05-22T20:32:15.704Z,101478.81
2019-05-22T20:37:18.838Z,101479.95
2019-05-22T20:42:22.960Z,101479.77
2019-05-22T20:47:26.534Z,101479.83
2019-05-22T20:52:31.212Z,101474.44
2019-05-22T20:57:35.986Z,101467.58
2019-05-22T21:02:39.629Z,101464.05
2019-05-22T21:07:48.538Z,101466.64
2019-05-22T21:12:52.811Z,101468.30
2019-05-22T21:17:58.239Z,101475.65
2019-05-22T21:23:03.277Z,101477.94
2019-05-22T21:28:06.814Z,101479.54
2019-05-22T21:33:11.040Z,101480.44
2019-05-22T21:38:14.214Z,101482.02
2019-05-22T21:43:18.756Z,101491.41
2019-05-22T21:48:23.389Z,101487.45
2019-05-22T21:53:27.141Z,101492.16
2019-05-22T21:58:30.663Z,101491.92
2019-05-22T22:03:37.904Z,101494.62
2019-05-22T22:08:41.484Z,101492.93
2019-05-22T22:13:45.007Z,101496.55
2019-05-22T22:18:49.425Z,101495.73
2019-05-22T22:23:52.844Z,101496.67
2019-05-22T22:28:56.797Z,101500.41
2019-05-22T22:34:07.467Z,101505.59
2019-05-22T22:39:14.799Z,101510.66
2019-05-22T22:44:22.159Z,101512.17
2019-05-22T22:49:27.760Z,101509.80
2019-05-22T22:54:31.567Z,101502.48
2019-05-22T22:59:35.683Z,101508.85
2019-05-22T23:04:39.684Z,101500.52
2019-05-22T23:09:43.869Z,101500.52
2019-05-22T23:14:51.847Z,101497.29
2019-05-22T23:19:54.687Z,101490.98
2019-05-22T23:24:59.794Z,101490.98
2019-05-22T23:30:04.445Z,101489.55
2019-05-22T23:35:08.484Z,101494.03
2019-05-22T23:40:13.159Z,101491.65
2019-05-22T23:45:19.733Z,101488.74
2019-05-22T23:50:24.091Z,101481.11
2019-05-22T23:55:27.425Z,101485.65
